Tiempo atmosférico en la estación meteorológica de Palma Aeropuerto, Illes Balears (8 m.)



Fecha
DESCASC
Temp. máxima en grados centígrados (hora)
DESCASC
Temp. mínima en grados centígrados (hora)
DESCASC
Temp. media en grados centígrados
DESCASC
Racha de viento máxima en m/sg (hora)
DESCASC
Velocidad máxima media en intervalos de 10 minutos(hora)
DESCASC
Precipitaciones diarias en mm
DESCASC
Precipitaciones de 00:00 a 06:00 en mm
DESCASC
Precipitaciones de 06:00 a 12:00 en mm
DESCASC
Precipitaciones de 12:00 a 18:00 en mm
DESCASC
Precipitaciones de 18:00 a 24:00 en mm
DESCASC

Gráficas

Temp. máximas Temp. mínimas Temp. medias Precipitaciones Rachas de viento máximas Velocidades máximas media en intervalos de 10 minutos

Datos horarios

Fecha y hora oficial Temperatura (ºC) Velocidad del viento (km/h) Dirección del viento Racha (km/h) Dirección de racha Precipitación (mm) Presión (hPa) Tendencia (hPa) Humedad (%)
2019-02-17 23:00:00 8.3 7 Nordeste 13 Nordeste 0 1024.6 0.1 95
2019-02-17 22:00:00 9 6 Este 11 Este 0 1024.7 0.7 91
2019-02-17 21:00:00 9.7 7 Este 11 Nordeste 0 1024.4 0.6 89
2019-02-17 20:00:00 10.8 8 Nordeste 15 Este 0 1024.5 0.5 80
2019-02-17 19:00:00 12.7 8 Este 13 Este 0 1024 -0.1 70
2019-02-17 18:00:00 14.8 4 Oeste 17 Oeste 0 1023.8 -0.6 71
2019-02-17 17:00:00 15.2 15 Oeste 18 Oeste 0 1024 -1 68
2019-02-17 16:00:00 16.7 15 Sudoeste 22 Sudoeste 0 1024.1 -1.8 59
2019-02-17 15:00:00 17.8 9 Este 21 Nordeste 0 1024.4 -2.3 41
2019-02-17 14:00:00 17.1 13 Nordeste 21 Este 0 1025 -2.1 41
2019-02-17 13:00:00 16.3 11 Este 22 Este 0 1025.9 -1.5 45
2019-02-17 12:00:00 15.2 14 Nordeste 22 Este 0 1026.7 -0.9 60
2019-02-17 11:00:00 13.9 13 Nordeste 21 Nordeste 0 1027.1 -0.1 71
2019-02-17 10:00:00 11.1 8 Este 13 Este 0 1027.4 0.3 84
2019-02-17 09:00:00 6.8 4 Nordeste 8 Norte 0 1027.6 0.6 94
2019-02-17 08:00:00 3.8 5 Norte 8 Norte 0 1027.2 0.3 93
2019-02-17 07:00:00 4.1 6 Norte 11 Norte 0 1027.1 0 94
2019-02-17 06:00:00 3.7 7 Norte 9 Norte 0 1027 -0.5 97
2019-02-17 05:00:00 4.1 6 Norte 9 Norte 0 1026.9 -0.8 96
2019-02-17 04:00:00 5.8 5 Norte 9 Norte 0 1027.1 -0.7 96
2019-02-17 03:00:00 5.6 3 Norte 13 Norte 0 1027.5 -0.4 97
2019-02-17 02:00:00 6.4 12 Norte 13 Norte 0 1027.7 -0.4 97
2019-02-17 01:00:00 7.4 6 Norte 17 Este 0 1027.8 -0.3 97
2019-02-17 00:00:00 7.4 14 Este 21 Este 0 1027.9 0.2 97
2019-02-16 23:00:00 7.9 4 Norte 18 Este 0 1028.1 0.5 95
2019-02-16 22:00:00 8.7 8 Este 17 Este 0 1028.1 0.6 94
2019-02-16 21:00:00 9.6 13 Este 17 Este 0 1027.7 0.5 90
2019-02-16 20:00:00 10.1 8 Este 13 Este 0 1027.6 0.1 85
2019-02-16 19:00:00 11.8 5 Nordeste 9 Este 0 1027.5 0 84
2019-02-16 18:00:00 15 7 Oeste 24 Oeste 0 1027.2 -0.5 74
2019-02-16 17:00:00 15.8 18 Oeste 24 Sudoeste 0 1027.5 -0.7 70
2019-02-16 16:00:00 17.4 17 Oeste 22 Oeste 0 1027.5 -1.5 53
2019-02-16 15:00:00 17.7 16 Sudoeste 22 Sudoeste 0 1027.7 -2 50
2019-02-16 14:00:00 17.9 14 Este 24 Este 0 1028.2 -1.4 40
2019-02-16 13:00:00 17.1 12 Este 24 Este 0 1029 -0.4 41
2019-02-16 12:00:00 16.3 18 Este 24 Este 0 1029.7 0.5 34
2019-02-16 11:00:00 14.3 18 Este 26 Este 0 1029.6 0.7 53
2019-02-16 10:00:00 9.6 7 Este 24 Este 0 1029.4 0.9 97
2019-02-16 09:00:00 5.9 8 Nordeste 18 Este 0 1029.2 0.9 99
2019-02-16 08:00:00 2.8 7 Nordeste 13 Este 0 1028.9 0.7 97
2019-02-16 07:00:00 0.5 3 Nordeste 9 Este 0 1028.5 -0.1 91
2019-02-16 06:00:00 2.6 6 Norte 9 Norte 0 1028.3 -0.5 89
2019-02-16 05:00:00 1.9 7 Nordeste 11 Nordeste 0 1028.2 -0.5 97
2019-02-16 04:00:00 1.9 4 Norte 5 Nordeste 0 1028.6 -0.2 96
2019-02-16 03:00:00 2.1 4 Nordeste 13 Norte 0 1028.8 -0.2 92
2019-02-16 02:00:00 3.6 9 Norte 13 Norte 0 1028.7 -0.4 98
2019-02-16 01:00:00 4.6 6 Norte 9 Norte 0 1028.8 -0.1 98
2019-02-16 00:00:00 6.2 6 Nordeste 8 Nordeste 0 1029 0.3 97
2019-02-15 23:00:00 6.3 5 Nordeste 9 Nordeste 0 1029.1 0.3 97
2019-02-15 22:00:00 7 4 Este 8 Este 0 1028.9 0.4 95
2019-02-15 21:00:00 7.8 9 Este 11 Este 0 1028.7 0.6 95
2019-02-15 20:00:00 9.3 3 Este -- -- 0 1028.8 0.9 91
2019-02-15 19:00:00 12 4 Norte 15 Oeste 0 1028.5 0.6 88
2019-02-15 18:00:00 14.2 13 Oeste 22 Oeste 0 1028.1 -0.3 78
2019-02-15 17:00:00 15.4 15 Sudoeste 21 Sudoeste 0 1027.9 -1 72
2019-02-15 16:00:00 16.1 14 Sudoeste 22 Sudoeste 0 1027.9 -1.8 67
2019-02-15 15:00:00 16.2 18 Sudoeste 22 Sudoeste 0 1028.4 -2.3 63
2019-02-15 14:00:00 18.5 12 Sudoeste 18 Sudoeste 0 1028.9 -2 48
2019-02-15 13:00:00 17.8 4 Noroeste 9 Nordeste 0 1029.7 -1.4 44
2019-02-15 12:00:00 15.9 3 Este 13 Nordeste 0 1030.7 -0.3 49
2019-02-15 11:00:00 13.4 7 Este 13 Este 0 1030.9 0.1 72
2019-02-15 10:00:00 10.2 0 Calma 8 Sudeste 0 1031.1 0.6 81
2019-02-15 09:00:00 6.2 5 Nordeste 11 Norte 0 1031 0.5 92
2019-02-15 08:00:00 2.7 6 Norte 11 Norte 0 1030.8 0.5 96
2019-02-15 07:00:00 3.3 9 Noroeste 11 Noroeste 0 1030.5 -0.1 95
2019-02-15 06:00:00 1.8 5 Nordeste 11 Nordeste 0 1030.5 -0.4 96
2019-02-15 05:00:00 0.5 5 Norte -- -- 0 1030.3 -1 95
2019-02-15 04:00:00 2.5 6 Norte 13 Norte 0 1030.6 -0.9 90
2019-02-15 03:00:00 1.8 11 Norte 13 Norte 0 1030.9 -0.7 94
2019-02-15 02:00:00 2 0 Calma 11 Norte 0 1031.3 -0.8 96
2019-02-15 01:00:00 3.5 4 Norte 9 Norte 0 1031.5 -0.5 95
2019-02-15 00:00:00 4.5 6 Norte 9 Norte 0 1031.6 -0.2 95
2019-02-14 23:00:00 6.4 4 Norte 9 Norte 0 1032.1 0.4 93
2019-02-14 22:00:00 7.1 6 Norte 9 Norte 0 1032 0.3 91
2019-02-14 21:00:00 8.2 7 Nordeste 9 Nordeste 0 1031.8 0.4 88
2019-02-14 20:00:00 8.9 8 Nordeste 13 Este 0 1031.7 0.1 81
2019-02-14 19:00:00 10.9 9 Este 13 Este 0 1031.7 -0.4 74
2019-02-14 18:00:00 14.7 8 Oeste 18 Oeste 0 1031.4 -1 64
2019-02-14 17:00:00 15.8 13 Oeste 17 Oeste 0 1031.6 -1.4 60
2019-02-14 16:00:00 16.1 14 Sudoeste 22 Sudoeste 0 1032.1 -1.6 60
2019-02-14 15:00:00 16.2 16 Sudoeste 22 Sudoeste 0 1032.4 -2.1 57
2019-02-14 14:00:00 16.9 8 Este 22 Este 0 1033 -1.8 47
2019-02-14 13:00:00 15.7 12 Este 24 Este 0 1033.7 -1.1 54
2019-02-14 12:00:00 14.4 15 Este 26 Sudeste 0 1034.5 -0.3 59
2019-02-14 11:00:00 13.3 17 Este 26 Este 0 1034.8 0.2 65
2019-02-14 10:00:00 10.4 0 Calma 5 Este 0 1034.8 0.5 68
2019-02-14 09:00:00 4.2 0 Calma 5 Este 0 1034.8 0.5 82
2019-02-14 08:00:00 0.9 4 Norte -- -- 0 1034.6 0.6 85
2019-02-14 07:00:00 0.4 4 Norte 8 Norte 0 1034.3 0.3 86
2019-02-14 06:00:00 1.4 7 Norte 9 Norte 0 1034.3 0.1 83
2019-02-14 05:00:00 1.5 4 Nordeste 8 Nordeste 0 1034 -0.2 89
2019-02-14 04:00:00 2.3 5 Nordeste 8 Nordeste 0 1034 -0.4 89
2019-02-14 03:00:00 2 0 Calma 8 Nordeste 0 1034.2 -0.2 88
2019-02-14 02:00:00 1.4 3 Nordeste 8 Norte 0 1034.2 0 90
2019-02-14 01:00:00 1.7 5 Norte 9 Nordeste 0 1034.4 0.7 90
2019-02-14 00:00:00 2.8 0 Calma 9 Norte 0 1034.4 1.1 89
2019-02-13 23:00:00 4.5 6 Norte 13 Norte 0 1034.2 1.1 75
2019-02-13 22:00:00 4.8 3 Norte 8 Norte 0 1033.7 0.7 84
2019-02-13 21:00:00 6.3 4 Nordeste 11 Este 0 1033.3 0.7 84
2019-02-13 20:00:00 7.6 7 Este 9 Este 0 1033.1 0.6 76
2019-02-13 19:00:00 10.5 4 Oeste 15 Sudoeste 0 1033 0.5 67
2019-02-13 18:00:00 13.4 13 Sudoeste 21 Sudoeste 0 1032.6 0.2 57
2019-02-13 17:00:00 14.5 15 Sudoeste 21 Sudoeste 0 1032.5 -0.3 53
2019-02-13 16:00:00 15.2 15 Sudoeste 22 Sudoeste 0 1032.5 -0.6 44
2019-02-13 15:00:00 15.7 16 Sudoeste 24 Oeste 0 1032.4 -1 37
2019-02-13 14:00:00 15.8 12 Oeste 18 Sudoeste 0 1032.8 -0.1 38
2019-02-13 13:00:00 15.6 12 Sudoeste 17 Sudoeste 0 1033.1 0.2 47
2019-02-13 12:00:00 15.2 7 Sudoeste 13 Sur 0 1033.4 0.6 55
2019-02-13 11:00:00 14.1 2 Sur 5 Sur 0 1032.9 0.7 56
2019-02-13 10:00:00 9.3 0 Calma 5 Oeste 0 1032.9 1.2 75
2019-02-13 09:00:00 3 3 Norte 5 Norte 0 1032.8 1.3 91
2019-02-13 08:00:00 -0.7 0 Calma 8 Norte 0 1032.2 1 95
2019-02-13 07:00:00 -1 3 Norte -- -- 0 1031.7 0.4 95
2019-02-13 06:00:00 -0.8 2 Norte 5 Nordeste 0 1031.5 0 95
2019-02-13 05:00:00 -0.6 3 Este 5 Este 0 1031.2 -0.5 94
2019-02-13 04:00:00 -0.1 2 Norte 8 Nordeste 0 1031.3 -0.6 94
2019-02-13 03:00:00 0.2 6 Este 8 Este 0 1031.5 -0.4 93
2019-02-13 02:00:00 1.7 4 Nordeste 8 Este 0 1031.7 -0.2 93
2019-02-13 01:00:00 2.4 5 Nordeste 8 Nordeste 0 1031.9 0.1 90
2019-02-13 00:00:00 3.3 3 Este -- -- 0 1031.9 0.2 88
2019-02-12 23:00:00 4.9 4 Norte 11 Norte 0 1031.9 0.2 83
2019-02-12 22:00:00 6 7 Nordeste 11 Nordeste 0 1031.8 0.4 78
2019-02-12 21:00:00 7.9 9 Norte 13 Norte 0 1031.7 1 70
2019-02-12 20:00:00 9.3 6 Nordeste 11 Este 0 1031.7 1.1 69
2019-02-12 19:00:00 11.5 7 Norte 9 Norte 0 1031.4 0.7 67
2019-02-12 18:00:00 14.4 10 Oeste 18 Sudoeste 0 1030.7 0 60
2019-02-12 17:00:00 15.3 14 Oeste 22 Oeste 0 1030.6 -0.5 55
2019-02-12 16:00:00 15.4 16 Sudoeste 26 Sudoeste 0 1030.7 -1 62
2019-02-12 15:00:00 15.6 20 Sudoeste 26 Sudoeste 0 1030.7 -1.3 61
2019-02-12 14:00:00 15.6 15 Sudoeste 24 Oeste 0 1031.1 -0.9 62
2019-02-12 13:00:00 15.5 4 Sudoeste 21 Sudoeste 0 1031.7 0 55
2019-02-12 12:00:00 15.5 7 Sudoeste 13 Sudoeste 0 1032 0.7 54
2019-02-12 11:00:00 13.2 5 Nordeste 8 Norte 0 1032 1.3 67
2019-02-12 10:00:00 8.4 0 Calma 5 Nordeste 0 1031.7 1.3 90
2019-02-12 09:00:00 5.2 4 Este 9 Este 0 1031.3 1 95
2019-02-12 08:00:00 3.1 7 Este 9 Este 0 1030.7 0.7 97
2019-02-12 07:00:00 3 5 Este 8 Este 0 1030.4 0.7 97
2019-02-12 06:00:00 3.8 3 Nordeste 9 Este 0 1030.3 0.1 96
2019-02-12 05:00:00 3.9 10 Este 13 Este 0 1030 0 95
2019-02-12 04:00:00 6.4 5 Norte 13 Norte 0 1029.7 0.1 92
2019-02-12 03:00:00 6.1 6 Norte 8 Norte 0 1030.2 0.6 96
2019-02-12 02:00:00 5.4 4 Norte 8 Norte 0 1030 0.3 96
2019-02-12 01:00:00 5.8 5 Este 8 Este 0 1029.6 0.5 94
2019-02-12 00:00:00 6.9 4 Nordeste 8 Nordeste 0 1029.6 0.7 93
2019-02-11 23:00:00 6.6 6 Nordeste 8 Nordeste 0 1029.7 1.5 92
2019-02-11 22:00:00 7.1 4 Norte 9 Este 0 1029.1 1.8 90
2019-02-11 21:00:00 8.7 5 Este 13 Sudeste 0 1028.9 2.2 86
2019-02-11 20:00:00 10.1 6 Este 11 Este 0 1028.2 1.8 79
2019-02-11 19:00:00 11.9 8 Sur 15 Sudeste 0 1027.3 1.3 71
2019-02-11 18:00:00 13.6 5 Sur 17 Sudeste 0 1026.7 1 64
2019-02-11 17:00:00 14.2 12 Sudeste 21 Sur 0 1026.4 1 64
2019-02-11 16:00:00 15 12 Sudoeste 21 Oeste 0 1026 0.3 58
2019-02-11 15:00:00 14.7 14 Sudoeste 26 Sudoeste 0 1025.7 -0.3 59
2019-02-11 14:00:00 15 17 Sudoeste 30 Sudoeste 0 1025.4 -0.2 61
2019-02-11 13:00:00 15.3 15 Sudoeste 22 Sudoeste 0 1025.7 0.3 58
2019-02-11 12:00:00 15.3 10 Oeste 18 Sudoeste 0 1026 1.4 57
2019-02-11 11:00:00 14.4 6 Oeste 13 Oeste 0 1025.6 1.5 60
2019-02-11 10:00:00 13.1 2 Sudeste 9 Este 0 1025.4 2.4 69
2019-02-11 09:00:00 11.2 8 Este 21 Este 0 1024.6 2.7 77
2019-02-11 08:00:00 11.3 9 Nordeste 13 Nordeste 0 1024.1 3.1 81
2019-02-11 07:00:00 11.6 9 Nordeste 26 Este 0 1023 2.5 84
2019-02-11 06:00:00 10.1 7 Este 17 Este 0 1021.9 1.9 86
2019-02-11 05:00:00 10.7 10 Este 22 Este 0 1021 1.2 82
2019-02-11 04:00:00 10.4 11 Nordeste 21 Noroeste 0 1020.5 -0.1 79
2019-02-11 03:00:00 9.8 14 Norte 17 Norte 0 1020 0.2 89
2019-02-11 02:00:00 7.8 11 Norte 15 Norte 0 1019.8 0.1 93
2019-02-11 01:00:00 8 4 Nordeste 15 Sudoeste 0 1020.6 1 91
2019-02-11 00:00:00 10 7 Sudoeste 15 Sudoeste 0 1019.8 0.8 91
2019-02-10 23:00:00 8.7 10 Sur 17 Sur 0 1019.7 0.9 89
2019-02-10 22:00:00 8.9 9 Este 13 Este 0 1019.6 1 84
2019-02-10 21:00:00 11.1 4 Oeste 15 Oeste 0 1019 0.9 75
2019-02-10 20:00:00 13.2 12 Oeste 21 Oeste 0 1018.8 0.7 69
2019-02-10 19:00:00 14.1 13 Oeste 32 Sudoeste 0 1018.6 0.6 67
2019-02-10 18:00:00 15.3 15 Oeste 28 Oeste 0 1018.1 0.4 59
2019-02-10 17:00:00 15.6 17 Oeste 28 Oeste 0 1018.1 -0.1 58
2019-02-10 16:00:00 16.4 16 Oeste 33 Oeste 0 1018 -1 55
2019-02-10 15:00:00 17.4 25 Oeste 46 Oeste 0 1017.7 -1.9 50
2019-02-10 14:00:00 17.5 40 Oeste 55 Oeste 0 1018.2 -1.4 51
2019-02-10 13:00:00 16.6 30 Sudoeste 46 Sudoeste 0 1019 -0.8 74
2019-02-10 12:00:00 15.7 31 Sudoeste 41 Sudoeste 0 1019.6 -0.4 81
2019-02-10 11:00:00 14.9 22 Sudoeste 30 Sudoeste 0 1019.6 0.1 85
2019-02-10 10:00:00 14.4 22 Sudoeste 30 Sudoeste 0 1019.8 0.4 85
2019-02-10 09:00:00 13.6 18 Sudoeste 32 Sudoeste 0 1020 0.4 84
2019-02-10 08:00:00 13.1 17 Sudoeste 22 Sudoeste 0 1019.5 -0.3 86
2019-02-10 07:00:00 12.6 15 Sudoeste 22 Sudoeste 0 1019.4 -1 85
2019-02-10 06:00:00 12.4 11 Oeste 24 Sudoeste 0 1019.6 -1.3 85
2019-02-10 05:00:00 11.4 14 Sudoeste 21 Oeste 0 1019.8 -1.3 95
2019-02-10 04:00:00 9.5 4 Noroeste 8 Noroeste 0 1020.4 -1 98
2019-02-10 03:00:00 9.2 4 Noroeste 9 Norte 0 1020.9 -0.9 99
2019-02-10 02:00:00 9.3 2 Noroeste 5 Noroeste 0 1021.1 -0.9 99
2019-02-10 01:00:00 9.4 0 Calma 8 Sudeste 0 1021.4 -0.4 99
2019-02-10 00:00:00 9.7 4 Nordeste 8 Norte 0 1021.8 0.1 99
2019-02-09 23:00:00 8.9 5 Norte -- -- 0 1022 0.4 99
2019-02-09 22:00:00 8 0 Calma 5 Norte 0 1021.8 0.5 97
2019-02-09 21:00:00 9 4 Este 8 Este 0 1021.7 0.5 96
2019-02-09 20:00:00 10.3 6 Nordeste 8 Nordeste 0 1021.6 0.5 96
2019-02-09 19:00:00 11.4 3 Oeste 17 Sudoeste 0 1021.3 0.2 90
2019-02-09 18:00:00 13.7 12 Sudoeste 21 Sudoeste 0 1021.2 -0.1 85
2019-02-09 17:00:00 15.1 12 Sudoeste 24 Sudoeste 0 1021.1 -0.5 79
2019-02-09 16:00:00 15.5 14 Sudoeste 24 Sudoeste 0 1021.1 -1 79
2019-02-09 15:00:00 16.2 16 Sudoeste 24 Sudoeste 0 1021.3 -1.2 74
2019-02-09 14:00:00 16.7 17 Sudoeste 24 Sudoeste 0 1021.6 -0.8 69
2019-02-09 13:00:00 16.6 17 Sudoeste 26 Sur 0 1022.1 0 70
2019-02-09 12:00:00 16.1 15 Sudoeste 22 Sudoeste 0 1022.5 0.6 77
2019-02-09 11:00:00 15.7 14 Sudoeste 21 Sudoeste 0 1022.4 0.9 81
2019-02-09 10:00:00 12.5 4 Nordeste 8 Nordeste 0 1022.1 1.1 86
2019-02-09 09:00:00 9.4 4 Norte 8 Norte 0 1021.9 1.2 97
2019-02-09 08:00:00 8.2 5 Nordeste 8 Norte 0 1021.5 0.9 98
2019-02-09 07:00:00 8.5 0 Calma 8 Nordeste 0 1021 0.1 98
2019-02-09 06:00:00 7.8 0 Calma 5 Nordeste 0 1020.7 -0.2 98
2019-02-09 05:00:00 6.9 0 Calma 4 Sudeste 0 1020.6 -0.9 98
2019-02-09 04:00:00 6.3 2 Norte 5 Norte 0 1020.9 -0.7 98
2019-02-09 03:00:00 6.2 0 Calma 5 Nordeste 0 1020.9 -1 97
2019-02-09 02:00:00 7 0 Calma 8 Norte 0 1021.5 -0.3 96
2019-02-09 01:00:00 6.7 2 Norte 9 Noroeste 0 1021.6 0.1 94
2019-02-09 00:00:00 8.1 5 Noroeste 11 Noroeste 0 1021.9 0.8 93
2019-02-08 23:00:00 9.3 3 Noroeste 9 Norte 0 1021.8 0.7 91
2019-02-08 22:00:00 10.8 5 Noroeste 11 Noroeste 0 1021.5 0.3 88
2019-02-08 21:00:00 11.9 7 Oeste 18 Sudoeste 0 1021.1 -0.2 86
2019-02-08 20:00:00 11.9 13 Sudoeste 17 Sudoeste 0 1021.1 -0.6 87
2019-02-08 19:00:00 11.7 11 Oeste 17 Sudoeste 0 1021.2 -0.8 83
2019-02-08 18:00:00 13.5 13 Sudoeste 21 Oeste 0 1021.3 -1.1 76
2019-02-08 17:00:00 14.8 15 Sudoeste 22 Sudoeste 0 1021.7 -1.2 70
2019-02-08 16:00:00 14.9 9 Sudoeste 21 Sudoeste 0 1022 -1.6 74
2019-02-08 15:00:00 14.9 11 Oeste 18 Oeste 0 1022.4 -1.7 73
2019-02-08 14:00:00 15.2 11 Sudoeste 22 Sur 0 1022.9 -1.2 69
2019-02-08 13:00:00 15.5 14 Sudoeste 24 Sudoeste 0 1023.6 -0.6 68
2019-02-08 12:00:00 15.4 8 Sudoeste 13 Sudoeste 0 1024.1 0.2 65
2019-02-08 11:00:00 13.7 0 Calma 5 Este 0 1024.1 0.6 74
2019-02-08 10:00:00 9.5 3 Este 5 Este 0 1024.2 1 91
2019-02-08 09:00:00 5.9 2 Sur 8 Nordeste 0 1023.9 0.7 96
2019-02-08 08:00:00 5.1 6 Nordeste 9 Nordeste 0 1023.5 0.6 98
2019-02-08 07:00:00 4.7 3 Norte 8 Norte 0 1023.2 0.3 97
2019-02-08 06:00:00 4.8 4 Norte 8 Norte 0 1023.2 0 95
2019-02-08 05:00:00 6.5 0 Calma 5 Este 0 1022.9 -0.3 93
2019-02-08 04:00:00 7.4 6 Norte 11 Norte 0 1022.9 -0.8 90
2019-02-08 03:00:00 8 6 Nordeste 11 Norte 0 1023.2 -0.4 92
2019-02-08 02:00:00 7.9 6 Nordeste 11 Nordeste 0 1023.2 -0.3 95
2019-02-08 01:00:00 8 3 Norte 8 Este 0 1023.7 1.1 96
2019-02-08 00:00:00 8.4 4 Nordeste 11 Este 0 1023.6 1.8 94
2019-02-07 23:00:00 9.3 5 Este 15 Este 0 1023.5 2.5 92
2019-02-07 22:00:00 10 8 Este 15 Este 0 1022.6 1.9 91
2019-02-07 21:00:00 11.2 9 Nordeste 15 Este 0 1021.8 2.2 94
2019-02-07 20:00:00 11.8 7 Este 15 Este 0 1021 1.5 89
2019-02-07 19:00:00 12.5 9 Este 13 Este 0 1020.7 1.5 88
2019-02-07 18:00:00 15.3 5 Sudoeste 13 Sur 0 1019.6 0.3 80
2019-02-07 17:00:00 16.3 8 Sur 17 Sudoeste 0 1019.5 -0.2 76
2019-02-07 16:00:00 16.5 12 Sudoeste 17 Sudoeste 0 1019.2 -1.2 74
2019-02-07 15:00:00 16.7 12 Sudoeste 17 Sudoeste 0 1019.3 -1.8 72
2019-02-07 14:00:00 16.9 11 Sudoeste 15 Sudoeste 0 1019.7 -1.4 70
2019-02-07 13:00:00 16.5 8 Sudoeste 15 Oeste 0 1020.4 -0.5 70
2019-02-07 12:00:00 15.8 3 Sudoeste 9 Sudoeste 0 1021.1 0.5 74
2019-02-07 11:00:00 13.5 3 Nordeste 5 Este 0 1021.1 0.6 91
2019-02-07 10:00:00 10.8 0 Calma 8 Noroeste 0 1020.9 0.5 99
2019-02-07 09:00:00 8 2 Nordeste 5 Nordeste 0 1020.6 0.1 99
2019-02-07 08:00:00 7.2 3 Norte 8 Noroeste 0 1020.5 0 100
2019-02-07 07:00:00 6.7 4 Norte -- -- 0 1020.4 -0.6 100
2019-02-07 06:00:00 6.9 4 Este 8 Norte 0 1020.5 -1.1 100
2019-02-07 05:00:00 6.7 4 Nordeste 8 Norte 0 1020.5 -1.4 100
2019-02-07 04:00:00 7.2 0 Calma -- -- 0 1021 -1.2 99
2019-02-07 03:00:00 7.2 3 Nordeste 8 Norte 0 1021.6 -0.9 99
2019-02-07 02:00:00 7.4 0 Calma 8 Noroeste 0 1021.9 -0.8 99
2019-02-07 01:00:00 6.8 3 Noroeste -- -- 0 1022.2 -0.5 99
2019-02-07 00:00:00 7.2 4 Nordeste 5 Nordeste 0 1022.5 -0.3 98
2019-02-06 23:00:00 8.1 2 Norte 5 Nordeste 0 1022.7 -0.2 97
2019-02-06 22:00:00 8.1 3 Norte 5 Norte 0 1022.7 0.1 97
2019-02-06 21:00:00 8.7 4 Este 9 Este 0 1022.8 0.3 95
2019-02-06 20:00:00 11.1 2 Sudeste 17 Sudoeste 0 1022.9 0.4 92
2019-02-06 19:00:00 13.3 13 Sudoeste 21 Sudoeste 0 1022.6 -0.1 89
2019-02-06 18:00:00 14.4 14 Sudoeste 30 Sudoeste 0 1022.5 -0.7 83
2019-02-06 17:00:00 15.3 20 Sudoeste 30 Sudoeste 0 1022.5 -1.4 79
2019-02-06 16:00:00 16 21 Sudoeste 30 Sudoeste 0 1022.7 -1.7 70
2019-02-06 15:00:00 16.2 24 Sudoeste 33 Sudoeste 0 1023.2 -2 73
2019-02-06 14:00:00 16 26 Sudoeste 33 Sudoeste 0 1023.9 -1.6 71
2019-02-06 13:00:00 16.2 20 Sudoeste 28 Sudoeste 0 1024.4 -1.4 67
2019-02-06 12:00:00 15.5 14 Sudoeste 21 Sudoeste 0 1025.2 -0.4 71
2019-02-06 11:00:00 14.2 5 Sudoeste 9 Sudoeste 0 1025.5 0 63
2019-02-06 10:00:00 9.1 4 Este 9 Este 0 1025.8 0.5 84
2019-02-06 09:00:00 4.5 3 Este 8 Este 0 1025.6 0.5 95
2019-02-06 08:00:00 2.2 3 Este 8 Este 0 1025.5 0.3 96
2019-02-06 07:00:00 1.9 4 Este 5 Nordeste 0 1025.3 -0.3 96
2019-02-06 06:00:00 2.4 3 Nordeste 8 Nordeste 0 1025.1 -0.6 96
2019-02-06 05:00:00 2.4 5 Este -- -- 0 1025.2 -0.6 95
2019-02-06 04:00:00 2.6 5 Noroeste 8 Noroeste 0 1025.6 -0.5 95
2019-02-06 03:00:00 3.2 3 Este 8 Este 0 1025.7 -0.4 95
2019-02-06 02:00:00 3.7 5 Este 8 Norte 0 1025.8 -0.2 94
2019-02-06 01:00:00 4.7 5 Norte 8 Noroeste 0 1026.1 0.4 93
2019-02-06 00:00:00 4.9 6 Norte 8 Norte 0 1026.1 0.7 93
2019-02-05 23:00:00 6.3 5 Norte 9 Norte 0 1026 1.1 89
2019-02-05 22:00:00 7.2 4 Este 11 Este 0 1025.7 1.1 88
2019-02-05 21:00:00 7.8 9 Este 11 Este 0 1025.4 1.2 83
2019-02-05 20:00:00 9.1 5 Norte 9 Nordeste 0 1024.9 0.7 77
2019-02-05 19:00:00 12.1 7 Noroeste 13 Oeste 0 1024.6 0.2 63
2019-02-05 18:00:00 14.2 12 Sudoeste 18 Sudoeste 0 1024.2 -0.2 56
2019-02-05 17:00:00 16.9 12 Noroeste 24 Oeste 0 1024.2 -1 47
2019-02-05 16:00:00 16.9 13 Oeste 24 Oeste 0 1024.4 -1.3 46
2019-02-05 15:00:00 16.2 20 Oeste 30 Oeste 0 1024.4 -2.3 46
2019-02-05 14:00:00 15.3 18 Sudoeste 26 Sudoeste 0 1025.2 -1.4 53
2019-02-05 13:00:00 14.8 14 Sudoeste 18 Oeste 0 1025.7 -1 54
2019-02-05 12:00:00 11.6 5 Sudoeste 9 Sudoeste 0 1026.7 0.4 51
2019-02-05 11:00:00 8.7 3 Sudeste 9 Sudeste 0 1026.6 0.5 59
2019-02-05 10:00:00 4.5 4 Este 5 Nordeste 0 1026.7 1 79
2019-02-05 09:00:00 1 0 Calma 8 Norte 0 1026.3 0.5 88
2019-02-05 08:00:00 0.3 4 Norte 8 Este 0 1026.1 0.2 90
2019-02-05 07:00:00 0.2 5 Este 8 Este 0 1025.7 -0.6 91
2019-02-05 06:00:00 1.1 3 Este 8 Nordeste 0 1025.8 -0.8 90
2019-02-05 05:00:00 1.1 6 Norte -- -- 0 1025.9 -0.6 91
2019-02-05 04:00:00 0.7 4 Este 9 Este 0 1026.3 -0.5 90
2019-02-05 03:00:00 1.2 5 Este 9 Este 0 1026.6 -0.1 89
2019-02-05 02:00:00 1.4 4 Este 11 Noroeste 0 1026.5 -0.3 87
2019-02-05 01:00:00 1.6 4 Nordeste 11 Este 0 1026.8 0 89
2019-02-05 00:00:00 1 7 Este 9 Este 0 1026.7 0.1 88
2019-02-04 23:00:00 2 6 Este 11 Este 0 1026.8 0.3 86
2019-02-04 22:00:00 2.4 7 Este 9 Este 0 1026.8 0.7 83
2019-02-04 21:00:00 -- 8 Nordeste 9 Este 0 1026.6 0.9 --
2019-02-04 20:00:00 6 5 Norte 11 Norte 0 1026.5 1.6 72
2019-02-04 19:00:00 7.9 7 Norte 17 Noroeste 0 1026.1 1.4 63
2019-02-04 18:00:00 10.7 12 Noroeste 26 Noroeste 0 1025.7 1 51
2019-02-04 17:00:00 12.3 17 Noroeste 30 Noroeste 0 1024.9 -0.1 46
2019-02-04 16:00:00 13.2 18 Noroeste 30 Noroeste 0 1024.7 -0.8 42
2019-02-04 15:00:00 13.8 16 Noroeste 24 Noroeste 0 1024.7 -1.4 39
2019-02-04 14:00:00 13.5 14 Noroeste 26 Noroeste 0 1025 -0.9 41
2019-02-04 13:00:00 13.4 9 Oeste 28 Sudoeste 0 1025.5 0.2 47
2019-02-04 12:00:00 12.4 15 Sudoeste 24 Sudoeste 0 1026.1 0.8 48
2019-02-04 11:00:00 11.2 2 Sudeste 8 Sudeste 0 1025.9 1.3 53
2019-02-04 10:00:00 8.2 0 Calma 9 Sudeste 0 1025.3 0.8 64
2019-02-04 09:00:00 3.8 5 Norte 9 Norte 0 1025.3 1.6 79
2019-02-04 08:00:00 2.6 0 Calma 13 Este 0 1024.6 1.6 77
2019-02-04 07:00:00 1.8 8 Nordeste 13 Este 0 1024.5 2.1 80
2019-02-04 06:00:00 3.1 2 Noroeste 11 Sudoeste 0 1023.7 1.5 71
2019-02-04 05:00:00 4.6 5 Norte 18 Norte 0 1023 0.9 67
2019-02-04 04:00:00 4.7 12 Norte 18 Norte 0 1022.4 0.4 65
2019-02-04 03:00:00 4.5 9 Norte 13 Norte 0 1022.2 0.5 63
2019-02-04 02:00:00 6.9 6 Norte 18 Noroeste 0 1022.1 1.3 55
2019-02-04 01:00:00 7.9 13 Norte 33 Norte 0 1022 1.9 48
2019-02-04 00:00:00 1.6 0 Calma 9 Norte 0 1021.7 2.2 75
2019-02-03 23:00:00 1.6 4 Norte 9 Norte 0 1020.8 1.9 72
2019-02-03 22:00:00 2.3 3 Este 5 Este 0 1020.1 1.7 68
2019-02-03 21:00:00 4.3 4 Norte 9 Este 0 1019.5 1.6 56
2019-02-03 20:00:00 6.5 8 Oeste 13 Oeste 0 1018.9 1.3 46
2019-02-03 19:00:00 7.5 8 Oeste 18 Noroeste 0 1018.4 1.6 47
2019-02-03 18:00:00 10.3 12 Noroeste 30 Norte 0 1017.9 2.1 39
2019-02-03 17:00:00 10.7 13 Oeste 24 Oeste 0 1017.6 2.4 53
2019-02-03 16:00:00 10.2 5 Sur 18 Este 0 1016.8 2 57
2019-02-03 15:00:00 10 15 Este 26 Nordeste 0 1015.8 1.1 59
2019-02-03 14:00:00 12.6 15 Noroeste 37 Norte 0 1015.2 0.9 36
2019-02-03 13:00:00 11.9 15 Noroeste 28 Noroeste 0 1014.8 1.4 40
2019-02-03 12:00:00 11.9 14 Noroeste 26 Norte 0 1014.7 1.7 40
2019-02-03 11:00:00 11.3 15 Norte 30 Noroeste 0 1014.3 2.1 41
2019-02-03 10:00:00 10.5 10 Noroeste 18 Noroeste 0 1013.4 2.2 44
2019-02-03 09:00:00 8.9 5 Oeste 13 Noroeste 0 1013 2.3 55
2019-02-03 08:00:00 6.5 10 Noroeste 21 Noroeste 0 1012.2 2.1 61
2019-02-03 07:00:00 7.7 12 Noroeste 22 Noroeste 0 1011.2 1.7 62
2019-02-03 06:00:00 8.1 10 Noroeste 22 Noroeste 0 1010.7 1.5 63
2019-02-03 05:00:00 8.5 13 Noroeste 30 Noroeste 0 1010.1 1.8 61
2019-02-03 04:00:00 8.4 15 Noroeste 30 Noroeste 0 1009.5 1.4 63
2019-02-03 03:00:00 8.1 13 Noroeste 26 Noroeste 0 1009.2 1.6 61
2019-02-03 02:00:00 8.3 15 Noroeste 33 Noroeste 0 1008.3 1.8 57
2019-02-03 01:00:00 8.6 13 Norte 28 Norte 0 1008.1 2.6 58
2019-02-03 00:00:00 9.4 19 Norte 33 Norte 0 1007.6 2.2 56
2019-02-02 23:00:00 9.6 20 Noroeste 39 Noroeste 0 1006.5 2 55
2019-02-02 22:00:00 10.4 22 Noroeste 39 Noroeste 0 1005.5 1.6 58
2019-02-02 21:00:00 10.4 14 Noroeste 50 Noroeste 0 1005.4 3.8 58
2019-02-02 20:00:00 10.8 28 Noroeste 50 Noroeste 0 1004.5 3.4 57
2019-02-02 19:00:00 11.1 13 Noroeste 54 Noroeste 0 1003.9 3.2 57
2019-02-02 18:00:00 11 31 Noroeste 59 Noroeste 0 1001.6 1.9 60
2019-02-02 17:00:00 11.1 28 Noroeste 54 Noroeste 0 1001.1 1.7 59
2019-02-02 16:00:00 11.4 24 Noroeste 52 Noroeste 0 1000.7 2 59
2019-02-02 15:00:00 11.3 27 Noroeste 50 Noroeste 0.2 999.7 1.1 64
2019-02-02 14:00:00 11.3 25 Oeste 42 Noroeste 0.4 999.4 1.2 65
2019-02-02 13:00:00 12.8 29 Noroeste 48 Noroeste 0.8 998.7 1.4 54
2019-02-02 12:00:00 12.6 19 Noroeste 33 Noroeste 0 998.6 2 56
2019-02-02 11:00:00 11.9 14 Noroeste 61 Norte 0 998.2 2.9 51
2019-02-02 10:00:00 10.5 17 Oeste 32 Oeste 0 997.3 2.4 64
2019-02-02 09:00:00 11 18 Oeste 42 Noroeste 0 996.6 2 59
2019-02-02 08:00:00 11.2 18 Oeste 33 Oeste 0 995.3 0.6 60
2019-02-02 07:00:00 11.6 26 Oeste 41 Oeste 0 994.9 0.4 60
2019-02-02 06:00:00 11.3 18 Oeste 39 Oeste 0 994.6 0.4 60
2019-02-02 05:00:00 11.9 24 Oeste 46 Oeste 0 994.7 0.9 58
2019-02-02 04:00:00 11.7 27 Oeste 46 Oeste 0 994.5 1.1 58
2019-02-02 03:00:00 11.8 29 Oeste 54 Oeste 0 994.2 1.2 57
2019-02-02 02:00:00 12.3 33 Oeste 59 Oeste 0 993.8 0.9 55
2019-02-02 01:00:00 13.1 41 Oeste 71 Oeste 0 993.4 0.2 54
2019-02-02 00:00:00 14 39 Oeste 58 Oeste 0 993 -0.3 56
2019-02-01 23:00:00 14.2 29 Sudoeste 52 Oeste 0 992.9 0.3 61
2019-02-01 22:00:00 13.8 30 Sudoeste 50 Sudoeste 0 993.2 0.7 69
2019-02-01 21:00:00 14.6 33 Oeste 58 Oeste 0 993.3 0.8 50
2019-02-01 20:00:00 15 36 Oeste 54 Oeste 0 992.6 0.5 39
2019-02-01 19:00:00 14.6 31 Oeste 46 Oeste 0 992.5 0.4 50
2019-02-01 18:00:00 15.2 33 Oeste 52 Oeste 0 992.5 0.2 60
2019-02-01 17:00:00 16 35 Oeste 50 Oeste 0 992.1 -0.9 64
2019-02-01 16:00:00 15.9 31 Sudoeste 45 Sudoeste 0 992.1 -1.6 81
2019-02-01 15:00:00 16.1 35 Sudoeste 61 Sudoeste 0 992.3 -2 84
2019-02-01 14:00:00 16.1 45 Sudoeste 58 Sudoeste 0.2 993 -1.8 84
2019-02-01 13:00:00 15.4 44 Sudoeste 65 Sudoeste 0 993.7 -1.6 86
2019-02-01 12:00:00 15.3 48 Sudoeste 68 Sudoeste 0.2 994.3 -0.9 85
2019-02-01 11:00:00 14.9 44 Sudoeste 58 Sudoeste 0.2 994.8 -0.2 87
2019-02-01 10:00:00 14.6 37 Oeste 54 Sudoeste 0.6 995.3 -0.2 90
2019-02-01 09:00:00 14.8 41 Sudoeste 58 Oeste 0 995.2 -0.8 88
2019-02-01 08:00:00 14.8 31 Oeste 50 Oeste 0 995 -1.8 88
2019-02-01 07:00:00 14.9 26 Oeste 45 Oeste 0 995.5 -1.7 88
2019-02-01 06:00:00 14.8 31 Oeste 48 Sudoeste 0 996 -1.9 88
2019-02-01 05:00:00 14.5 31 Sudoeste 42 Sudoeste 0 996.8 -1.5 91
2019-02-01 04:00:00 14.7 33 Sudoeste 46 Sudoeste 0 997.2 -2.4 87
2019-02-01 03:00:00 14.9 29 Sudoeste 45 Sudoeste 0 997.9 -1.7 84
2019-02-01 02:00:00 14.6 24 Oeste 33 Oeste 0 998.3 -1.3 88
2019-02-01 01:00:00 14.5 23 Sudoeste 39 Sudoeste 0 999.6 -0.5 91
2019-02-01 00:00:00 14.6 23 Sudoeste 32 Sudoeste 0 999.6 -0.5 90
2019-01-31 23:00:00 14.6 5 Sudoeste 22 Sudoeste 0 999.6 -0.7 88
2019-01-31 22:00:00 14.2 9 Sur 24 Sur 0 1000.1 -0.2 90
2019-01-31 21:00:00 14.7 20 Sur 30 Sudoeste 0 1000.1 0.2 87
2019-01-31 20:00:00 14.6 13 Sudoeste 22 Sudoeste 0 1000.3 0.4 80
2019-01-31 19:00:00 14.7 7 Oeste 22 Sudoeste 0 1000.3 0.8 85
2019-01-31 18:00:00 15.4 14 Sudoeste 37 Sudoeste 0 999.9 0.2 80
2019-01-31 17:00:00 16.7 26 Sudoeste 45 Sudoeste 0 999.9 0.1 74
2019-01-31 16:00:00 17.2 33 Sudoeste 50 Oeste 0 999.5 -1.1 70
2019-01-31 15:00:00 17.9 32 Oeste 58 Oeste 0 999.7 -1.4 64
2019-01-31 14:00:00 18.7 34 Oeste 55 Oeste 0 999.8 -1.5 56
2019-01-31 13:00:00 18.5 42 Oeste 63 Oeste 0 1000.6 -0.6 56
2019-01-31 12:00:00 18.1 34 Oeste 46 Oeste 0 1001.1 -0.1 59
2019-01-31 11:00:00 15.4 21 Oeste 33 Oeste 0 1001.3 0.3 69
2019-01-31 10:00:00 15 25 Oeste 37 Oeste 0 1001.2 0 69
2019-01-31 09:00:00 14.1 20 Oeste 33 Oeste 0 1001.2 -0.3 70
2019-01-31 08:00:00 13.8 23 Oeste 41 Oeste 0 1001 -1.1 71
2019-01-31 07:00:00 13.7 23 Oeste 42 Sudoeste 0 1001.2 -1.7 72
2019-01-31 06:00:00 13.4 24 Oeste 41 Oeste 0 1001.5 -2.4 66
2019-01-31 05:00:00 13.2 30 Oeste 54 Oeste 0 1002.1 -2.1 65
2019-01-31 04:00:00 13.5 30 Oeste 52 Oeste 0 1002.9 -2.6 64
2019-01-31 03:00:00 13.6 27 Oeste 52 Oeste 0 1003.9 -2.6 59
2019-01-31 02:00:00 13.4 28 Oeste 39 Oeste 0 1004.2 -3.2 62
2019-01-31 01:00:00 5.9 5 Este 11 Norte 0 1005.5 -2.5 81
2019-01-31 00:00:00 4.7 6 Nordeste 11 Nordeste 0 1006.5 -1.5 80
2019-01-30 23:00:00 3.7 6 Nordeste 8 Nordeste 0 1007.4 -0.7 81
2019-01-30 22:00:00 5.5 3 Nordeste 9 Norte 0 1008 -0.4 72
2019-01-30 21:00:00 6.5 4 Norte 9 Nordeste 0 1008 0.1 68
2019-01-30 20:00:00 6.8 9 Nordeste 15 Oeste 0 1008.1 0.2 67
2019-01-30 19:00:00 10.6 11 Oeste 13 Oeste 0 1008.4 0.4 48
2019-01-30 18:00:00 12.5 6 Oeste 21 Noroeste 0 1007.9 -0.4 41
2019-01-30 17:00:00 14.1 15 Oeste 30 Oeste 0 1007.9 -0.9 37
2019-01-30 16:00:00 14.7 16 Oeste 33 Oeste 0 1008 -1.1 40
2019-01-30 15:00:00 15.3 17 Oeste 35 Noroeste 0 1008.3 -1.2 39
2019-01-30 14:00:00 14 29 Noroeste 46 Noroeste 0 1008.8 -1.3 42
2019-01-30 13:00:00 14.5 29 Noroeste 50 Norte 0 1009.1 0 38
2019-01-30 12:00:00 13.9 32 Noroeste 48 Norte 0 1009.5 1 46
2019-01-30 11:00:00 13.3 32 Noroeste 52 Noroeste 0 1010.1 2.2 43
2019-01-30 10:00:00 11.9 25 Noroeste 46 Norte 0 1009.1 2.1 54
2019-01-30 09:00:00 11.1 21 Noroeste 45 Noroeste 0 1008.5 1.7 54
2019-01-30 08:00:00 11.1 22 Noroeste 50 Noroeste 0 1007.9 1.7 52
2019-01-30 07:00:00 11.5 28 Noroeste 61 Noroeste 0 1007 0.6 49
2019-01-30 06:00:00 11.5 28 Noroeste 65 Noroeste 0 1006.8 0.2 52
2019-01-30 05:00:00 11.8 33 Noroeste 68 Noroeste 0 1006.2 0.5 52
2019-01-30 04:00:00 12 35 Noroeste 61 Noroeste 0 1006.4 0.6 50
2019-01-30 03:00:00 12.2 33 Noroeste 58 Noroeste 0 1006.6 1.4 51
2019-01-30 02:00:00 12.3 33 Noroeste 52 Noroeste 0 1005.7 0.6 55
2019-01-30 01:00:00 12.7 25 Noroeste 54 Noroeste 0 1005.8 0.6 51
2019-01-30 00:00:00 12.1 9 Oeste 32 Noroeste 0 1005.2 -0.4 74
2019-01-29 23:00:00 13.7 18 Noroeste 30 Oeste 0 1005.1 -0.9 66
2019-01-29 22:00:00 13.3 12 Oeste 26 Oeste 0 1005.2 -1.4 76
2019-01-29 21:00:00 13 22 Oeste 32 Oeste 0 1005.6 -1.4 71
2019-01-29 20:00:00 10.9 2 Oeste 13 Sudoeste 0 1006 -1.9 68
2019-01-29 19:00:00 11.6 9 Oeste 30 Oeste 0 1006.6 -2 63
2019-01-29 18:00:00 12.5 21 Oeste 33 Oeste 0 1007 -2.4 60
2019-01-29 17:00:00 12.8 21 Oeste 35 Oeste 0 1007.9 -2.5 64
2019-01-29 16:00:00 12.9 16 Oeste 26 Oeste 0 1008.6 -2.6 56
2019-01-29 15:00:00 13.3 9 Oeste 24 Oeste 0 1009.4 -2.8 53
2019-01-29 14:00:00 14 16 Oeste 39 Noroeste 0 1010.4 -2.2 49
2019-01-29 13:00:00 14.2 15 Noroeste 28 Noroeste 0 1011.2 -1.4 47
2019-01-29 12:00:00 12.6 7 Oeste 13 Noroeste 0 1012.2 -0.8 59
2019-01-29 11:00:00 10.8 0 Calma 11 Oeste 0 1012.6 -0.5 73
2019-01-29 10:00:00 10.5 8 Sudoeste 15 Sudoeste 0 1012.6 0.2 66
2019-01-29 09:00:00 6 8 Sudeste 13 Sudeste 0 1013 0.6 92
2019-01-29 08:00:00 5.8 7 Este 15 Norte 0 1013.1 0.7 91
2019-01-29 07:00:00 6.5 5 Este 17 Este 0 1012.4 0.4 90
2019-01-29 06:00:00 7.7 0 Calma 11 Este 0 1012.4 0.8 82
2019-01-29 05:00:00 8.8 3 Norte 17 Este 0 1012.4 0.7 76
2019-01-29 04:00:00 9.5 8 Oeste 21 Noroeste 0 1012 0.3 72
2019-01-29 03:00:00 10.3 13 Noroeste 18 Noroeste 0 1011.6 0.7 69
2019-01-29 02:00:00 10.7 9 Oeste 15 Noroeste 0 1011.7 1 67
2019-01-29 01:00:00 10.8 9 Noroeste 32 Norte 0 1011.7 1.7 65
2019-01-29 00:00:00 11.9 20 Noroeste 39 Noroeste 0 1010.9 1.6 60
2019-01-28 23:00:00 12.6 20 Noroeste 41 Noroeste 0 1010.7 2.1 60
2019-01-28 22:00:00 13.1 25 Noroeste 50 Norte 0 1010 2.2 54
2019-01-28 21:00:00 13.2 22 Noroeste 48 Noroeste 0 1009.3 2.1 53
2019-01-28 20:00:00 13.8 30 Noroeste 61 Noroeste 0 1008.6 2.2 55
2019-01-28 19:00:00 13.8 31 Noroeste 59 Noroeste 0 1007.8 1.9 55
2019-01-28 18:00:00 14.1 36 Noroeste 67 Noroeste 0 1007.2 0.9 54
2019-01-28 17:00:00 14.7 41 Noroeste 71 Norte 0 1006.4 0.3 50
2019-01-28 16:00:00 15.4 40 Noroeste 67 Noroeste 0 1005.9 -1.4 49
2019-01-28 15:00:00 14.9 30 Noroeste 54 Noroeste 0 1006.3 -2 49
2019-01-28 14:00:00 15.7 30 Oeste 52 Oeste 0 1006.1 -2.7 43
2019-01-28 13:00:00 14.5 28 Oeste 54 Oeste 0 1007.3 -2.2 48
2019-01-28 12:00:00 15.3 30 Oeste 52 Oeste 0 1008.3 -1.1 44
2019-01-28 11:00:00 14.1 20 Oeste 45 Sudoeste 0 1008.8 -0.6 45
2019-01-28 10:00:00 13.3 25 Noroeste 50 Noroeste 0 1009.5 -0.3 50
2019-01-28 09:00:00 11.1 33 Noroeste 55 Noroeste 0 1009.4 -0.6 59
2019-01-28 08:00:00 10.6 29 Noroeste 50 Noroeste 0 1009.4 -1.1 59
2019-01-28 07:00:00 10 17 Noroeste 33 Noroeste 0 1009.8 -1 64
2019-01-28 06:00:00 9.6 17 Noroeste 30 Noroeste 0 1010 -0.3 65
2019-01-28 05:00:00 9.1 2 Oeste 21 Noroeste 0 1010.5 0.1 66
2019-01-28 04:00:00 10.7 13 Noroeste 35 Norte 0 1010.8 -0.4 60
2019-01-28 03:00:00 10.8 23 Noroeste 39 Noroeste 0 1010.3 -0.6 60
2019-01-28 02:00:00 11.2 29 Noroeste 45 Norte 0 1010.4 -0.7 55
2019-01-28 01:00:00 11.7 21 Noroeste 37 Noroeste 0 1011.2 0.9 51
2019-01-28 00:00:00 11.9 23 Noroeste 50 Noroeste 0 1010.9 1.8 50
2019-01-27 23:00:00 12.1 17 Noroeste 54 Norte 0 1011.1 2 47
2019-01-27 22:00:00 12.5 31 Noroeste 76 Noroeste 0 1010.3 2 48
2019-01-27 21:00:00 12.7 35 Noroeste 71 Norte 0 1009.1 1.4 45
2019-01-27 20:00:00 13.6 42 Noroeste 74 Noroeste 0 1009.1 1.8 39
2019-01-27 19:00:00 13.7 25 Noroeste 54 Noroeste 0 1008.3 1.9 44
2019-01-27 18:00:00 14.1 26 Noroeste 52 Noroeste 0 1007.7 1.2 44
2019-01-27 17:00:00 15.2 33 Noroeste 74 Oeste 0 1007.3 0.5 41
2019-01-27 16:00:00 16 31 Noroeste 67 Noroeste 0 1006.4 -0.6 39
2019-01-27 15:00:00 16.3 32 Noroeste 58 Noroeste 0 1006.5 -0.8 44
2019-01-27 14:00:00 16.4 33 Noroeste 52 Noroeste 0 1006.8 -0.7 50
2019-01-27 13:00:00 17.4 24 Noroeste 46 Noroeste 0 1007 -0.4 46
2019-01-27 12:00:00 17.2 19 Noroeste 37 Noroeste 0 1007.3 -0.3 46
2019-01-27 11:00:00 14 7 Noroeste 15 Noroeste 0 1007.5 -0.3 72
2019-01-27 10:00:00 10 4 Norte 9 Norte 0 1007.4 -0.8 89
2019-01-27 09:00:00 8.5 10 Norte 21 Sudoeste 0 1007.6 -0.9 92
2019-01-27 08:00:00 8 10 Sudoeste 13 Sudoeste 0 1007.8 -1.5 98
2019-01-27 07:00:00 6.2 5 Noroeste 13 Sudoeste 0 1008.2 -2.2 97
2019-01-27 06:00:00 7.3 0 Calma 9 Norte 0 1008.5 -2.9 97
2019-01-27 05:00:00 8.3 4 Norte 11 Oeste 0 1009.3 -2.9 95
2019-01-27 04:00:00 11.7 8 Sudoeste 21 Sudoeste 0 1010.4 -2.4 93
2019-01-27 03:00:00 12.8 13 Sudoeste 18 Sudoeste 0 1011.4 -2.3 93
2019-01-27 02:00:00 13.5 12 Oeste 28 Sudoeste 0 1012.2 -1.9 91
2019-01-27 01:00:00 13.8 22 Sudoeste 30 Sudoeste 0 1012.8 -1.9 90
2019-01-27 00:00:00 12.8 6 Oeste 22 Oeste 0 1013.7 -1.4 91
2019-01-26 23:00:00 11.3 11 Oeste 18 Oeste 0 1014.1 -1.5 92
2019-01-26 22:00:00 12.6 9 Oeste 21 Sudoeste 0 1014.7 -1.1 89
2019-01-26 21:00:00 11.1 14 Sudoeste 18 Sudoeste 0 1015.1 -1 89
2019-01-26 20:00:00 12.5 17 Sudoeste 26 Sudoeste 0 1015.6 -1.1 85
2019-01-26 19:00:00 12.4 16 Sudoeste 24 Sudoeste 0 1015.8 -1.3 81
2019-01-26 18:00:00 13.6 20 Sudoeste 26 Sudoeste 0 1016.1 -0.8 75
2019-01-26 17:00:00 14.9 19 Oeste 33 Sudoeste 0 1016.7 -1 72
2019-01-26 16:00:00 15.3 28 Sudoeste 46 Sudoeste 0 1017.1 -1.4 69
2019-01-26 15:00:00 16.1 32 Sudoeste 39 Sudoeste 0 1016.9 -1.9 61
2019-01-26 14:00:00 17.3 16 Sudoeste 22 Sudoeste 0 1017.7 -1 54
2019-01-26 13:00:00 16.8 12 Noroeste 22 Norte 0 1018.5 0.5 56
2019-01-26 12:00:00 15.5 7 Oeste 13 Sudoeste 0 1018.8 1.2 65
2019-01-26 11:00:00 13.7 9 Sudoeste 13 Sudoeste 0 1018.7 1.2 75
2019-01-26 10:00:00 9.2 4 Sudeste 8 Sudeste 0 1018 1.1 88
2019-01-26 09:00:00 4.1 3 Nordeste 9 Este 0 1017.6 1 95
2019-01-26 08:00:00 3.8 5 Este 15 Este 0 1017.5 1.4 97
2019-01-26 07:00:00 3.6 4 Este 9 Este 0 1016.9 0.9 96
2019-01-26 06:00:00 3.5 9 Este 11 Este 0 1016.6 1 95
2019-01-26 05:00:00 4.4 3 Noroeste 13 Este 0 1016.1 1 95
2019-01-26 04:00:00 5.6 8 Este 11 Nordeste 0 1016 1.2 93
2019-01-26 03:00:00 7.3 4 Norte 21 Sudeste 0 1015.6 0.9 91
2019-01-26 02:00:00 10 6 Norte 15 Oeste 0 1015.1 1.3 85
2019-01-26 01:00:00 11.6 9 Oeste 17 Oeste 0 1014.8 1.4 76
2019-01-26 00:00:00 11.3 8 Sudoeste 18 Sudoeste 0 1014.7 1.4 78
2019-01-25 23:00:00 12 7 Sudoeste 13 Norte 0 1013.8 0.7 77
2019-01-25 22:00:00 9 3 Noroeste 18 Oeste 0 1013.4 0.6 85
2019-01-25 21:00:00 11.1 12 Sudoeste 18 Sudoeste 0 1013.3 0.7 85
2019-01-25 20:00:00 11.2 11 Sudoeste 21 Sudoeste 0 1013.1 0.9 82
2019-01-25 19:00:00 12.1 16 Oeste 24 Oeste 0 1012.8 0.6 67
2019-01-25 18:00:00 12.6 17 Oeste 30 Sudoeste 0 1012.6 0.3 53
2019-01-25 17:00:00 13 19 Sudoeste 28 Sudoeste 0 1012.2 -0.5 48
2019-01-25 16:00:00 14.2 9 Sudoeste 17 Este 0 1012.2 -0.7 40
2019-01-25 15:00:00 14.5 12 Sudeste 22 Este 0 1012.3 -1.1 39
2019-01-25 14:00:00 14.3 14 Este 32 Este 0 1012.7 -0.7 36
2019-01-25 13:00:00 14.5 16 Nordeste 26 Norte 0 1012.9 0.3 28
2019-01-25 12:00:00 13.2 7 Sudoeste 11 Sur 0 1013.4 1.2 46
2019-01-25 11:00:00 10.6 2 Sudeste 5 Sur 0 1013.4 2 53
2019-01-25 10:00:00 4.5 0 Calma 9 Este 0 1012.6 1.4 79
2019-01-25 09:00:00 0.1 5 Este 9 Este 0 1012.2 1.3 87
2019-01-25 08:00:00 -0.7 0 Calma 17 Este 0 1011.4 1 92
2019-01-25 07:00:00 -1.1 5 Nordeste 9 Este 0 1011.2 1.2 90
2019-01-25 06:00:00 -0.2 3 Norte 11 Norte 0 1010.9 1 91
2019-01-25 05:00:00 -0.5 6 Sudeste 13 Noroeste 0 1010.4 0.8 90
2019-01-25 04:00:00 -0.8 7 Este 9 Este 0 1010 0.2 90
2019-01-25 03:00:00 -0.5 6 Este 11 Noroeste 0 1009.9 0.2 89
2019-01-25 02:00:00 0.1 5 Nordeste 11 Nordeste 0 1009.6 0.4 87
2019-01-25 01:00:00 1.9 0 Calma 13 Norte 0 1009.8 1 82
2019-01-25 00:00:00 2.2 9 Este 13 Este 0 1009.7 1.5 80
2019-01-24 23:00:00 3.6 2 Noroeste 11 Norte 0 1009.2 1.8 73
2019-01-24 22:00:00 4.9 7 Norte 17 Norte 0 1008.8 2.4 67
2019-01-24 21:00:00 7 12 Sudeste 15 Sudeste 0 1008.2 2.8 58
2019-01-24 20:00:00 8.1 12 Sudeste 18 Sudeste 0 1007.4 2.4 49
2019-01-24 19:00:00 9.9 6 Norte 24 Nordeste 0 1006.4 2.2 39
2019-01-24 18:00:00 10.9 14 Norte 37 Norte 0 1005.4 1.9 34
2019-01-24 17:00:00 11.9 22 Norte 48 Norte 0 1005 2 33
2019-01-24 16:00:00 12.1 25 Norte 48 Noroeste 0 1004.2 1.5 37
2019-01-24 15:00:00 12.1 21 Norte 46 Norte 0 1003.5 1.3 33
2019-01-24 14:00:00 12 30 Norte 48 Norte 0 1003 0.3 35
2019-01-24 13:00:00 12 23 Norte 65 Noroeste 0 1002.7 0.8 36
2019-01-24 12:00:00 11.5 41 Noroeste 59 Norte 0 1002.2 1.3 35
2019-01-24 11:00:00 11.2 22 Norte 52 Norte 0 1002.7 2.6 36
2019-01-24 10:00:00 10.1 22 Norte 58 Norte 0 1001.9 2.9 35
2019-01-24 09:00:00 9.2 30 Norte 63 Norte 0 1000.9 2.5 35
2019-01-24 08:00:00 8.7 27 Norte 59 Norte 0 1000.1 1.8 37
2019-01-24 07:00:00 9.1 33 Norte 61 Norte 0 999 0.6 41
2019-01-24 06:00:00 8.8 24 Norte 41 Noroeste 0 998.4 0 44
2019-01-24 05:00:00 9 20 Norte 41 Norte 0 998.3 -0.1 51
2019-01-24 04:00:00 9.3 23 Norte 46 Norte 0.2 998.4 0.5 52
2019-01-24 03:00:00 8 11 Norte 42 Nordeste 0.2 998.4 0.6 73
2019-01-24 02:00:00 7.9 14 Nordeste 24 Este 0 998.4 1.3 79
2019-01-24 01:00:00 10.4 17 Norte 32 Norte 0 997.9 0.9 61
2019-01-24 00:00:00 10.1 19 Norte 35 Norte 0.4 997.8 0.8 63
2019-01-23 23:00:00 12 19 Norte 45 Norte 0 997.1 0.7 55
2019-01-23 22:00:00 12.6 18 Noroeste 52 Noroeste 0 997 1 52
2019-01-23 21:00:00 13.1 29 Noroeste 55 Norte 0 997 1.3 53
2019-01-23 20:00:00 13.5 28 Noroeste 59 Noroeste 0 996.4 0.6 52
2019-01-23 19:00:00 13.9 28 Noroeste 61 Noroeste 0 996 0.3 52
2019-01-23 18:00:00 14.1 38 Noroeste 65 Norte 0 995.7 0.4 54
2019-01-23 17:00:00 14.1 37 Noroeste 65 Noroeste 0 995.8 -0.1 53
2019-01-23 16:00:00 14.3 30 Noroeste 59 Noroeste 0 995.7 -1.4 60
2019-01-23 15:00:00 15 36 Noroeste 65 Noroeste 0 995.3 -3.6 55
2019-01-23 14:00:00 14.1 26 Noroeste 55 Oeste 0 995.9 -4.1 61
2019-01-23 13:00:00 13 22 Oeste 35 Oeste 0.2 997.1 -2.3 69
2019-01-23 12:00:00 10.9 6 Oeste 15 Oeste 0.4 998.9 -1.5 79
2019-01-23 11:00:00 10.2 15 Noroeste 37 Noroeste 0.8 1000 -1.7 78
2019-01-23 10:00:00 11.3 13 Oeste 21 Oeste 0 999.4 -3 66
2019-01-23 09:00:00 9.8 15 Sudoeste 17 Sudoeste 0 1000.4 -2.3 73
2019-01-23 08:00:00 9.6 8 Oeste 18 Oeste 0 1001.7 -2 72
2019-01-23 07:00:00 9.4 16 Sudoeste 39 Noroeste 0 1002.4 -1.4 68
2019-01-23 06:00:00 10.1 24 Noroeste 48 Noroeste 0 1002.7 -1.5 64
2019-01-23 05:00:00 9.8 17 Noroeste 33 Noroeste 0 1003.7 -0.7 66
2019-01-23 04:00:00 9.5 17 Noroeste 37 Noroeste 0 1003.8 -1.5 67
2019-01-23 03:00:00 9.4 13 Noroeste 32 Noroeste 0 1004.2 -1.7 70
2019-01-23 02:00:00 9.1 12 Oeste 28 Noroeste 0 1004.4 -2 72
2019-01-23 01:00:00 7.8 9 Norte 33 Noroeste 0 1005.3 -1.8 82
2019-01-23 00:00:00 8.9 10 Noroeste 18 Oeste 0 1005.9 -1.6 76
2019-01-22 23:00:00 8.6 7 Oeste 15 Oeste 0 1006.4 -1.5 74
2019-01-22 22:00:00 9.7 10 Oeste 17 Oeste 0 1007.1 -1.1 62
2019-01-22 21:00:00 9.2 9 Oeste 17 Oeste 0 1007.5 -1 63
2019-01-22 20:00:00 9.2 11 Oeste 21 Oeste 0 1007.9 -0.8 62
2019-01-22 19:00:00 8.7 11 Oeste 15 Oeste 0 1008.2 -1.1 63
2019-01-22 18:00:00 9 8 Oeste 15 Noroeste 0 1008.5 -1.3 61
2019-01-22 17:00:00 9.7 11 Noroeste 26 Noroeste 0 1008.7 -2.2 62
2019-01-22 16:00:00 10.9 11 Oeste 28 Oeste 0 1009.3 -2.9 51
2019-01-22 15:00:00 11.4 16 Oeste 28 Oeste 0 1009.8 -3.4 51
2019-01-22 14:00:00 11.5 15 Noroeste 28 Noroeste 0 1010.9 -3 51
2019-01-22 13:00:00 11.8 17 Noroeste 32 Noroeste 0 1012.2 -2 53
2019-01-22 12:00:00 10.9 17 Noroeste 28 Noroeste 0 1013.2 -1 57
2019-01-22 11:00:00 9.9 7 Oeste 13 Noroeste 0 1013.9 -0.5 77
2019-01-22 10:00:00 5.1 2 Este 8 Nordeste 0 1014.2 -0.3 95
2019-01-22 09:00:00 1.6 4 Nordeste 8 Sudeste 0 1014.2 -0.6 98
2019-01-22 08:00:00 0.6 4 Este 9 Este 0 1014.4 -0.8 98
2019-01-22 07:00:00 0.8 7 Este 9 Este 0 1014.5 -1.6 98
2019-01-22 06:00:00 2.2 4 Norte 5 Norte 0 1014.8 -1.8 98
2019-01-22 05:00:00 2.9 0 Calma 5 Norte 0 1015.2 -1.9 97
2019-01-22 04:00:00 3.6 5 Nordeste 11 Norte 0 1016.1 -1.9 96
2019-01-22 03:00:00 4.2 9 Oeste 11 Oeste 0 1016.6 -1 94
2019-01-22 02:00:00 5.4 6 Sudeste 21 Nordeste 0 1017.1 -0.2 91
2019-01-22 01:00:00 6 8 Noroeste 28 Noroeste 0.4 1018 0.4 89
2019-01-22 00:00:00 4.1 6 Nordeste 13 Nordeste 0 1017.6 0.3 91
2019-01-21 23:00:00 5.3 11 Nordeste 21 Este 0 1017.3 0.3 91
2019-01-21 22:00:00 3.9 5 Este 13 Este 0 1017.6 0.8 94
2019-01-21 21:00:00 4 5 Nordeste 9 Norte 0 1017.3 0.8 93
2019-01-21 20:00:00 5.5 3 Nordeste 9 Este 0 1017 0.8 89
2019-01-21 19:00:00 6.5 6 Este 17 Este 0 1016.8 0.8 85
2019-01-21 18:00:00 8.7 14 Este 26 Este 0 1016.5 1 73
2019-01-21 17:00:00 11.8 17 Norte 30 Norte 0 1016.2 0.7 57
2019-01-21 16:00:00 11.2 16 Nordeste 33 Nordeste 0 1016 0.1 59
2019-01-21 15:00:00 12.5 28 Nordeste 42 Nordeste 0 1015.5 -0.7 54
2019-01-21 14:00:00 13.2 17 Nordeste 41 Nordeste 0 1015.5 -0.7 51
2019-01-21 13:00:00 12.2 15 Norte 39 Nordeste 0 1015.9 1 60
2019-01-21 12:00:00 12.4 19 Nordeste 28 Nordeste 0 1016.2 1.7 60
2019-01-21 11:00:00 9.7 17 Nordeste 41 Nordeste 0 1016.2 2.1 76
2019-01-21 10:00:00 9.7 0 Calma 8 Este 0 1014.9 1.2 85
2019-01-21 09:00:00 6.2 4 Este 11 Sudeste 0 1014.5 1.8 95
2019-01-21 08:00:00 6.8 3 Noroeste 9 Este 0.2 1014.1 1.9 95
2019-01-21 07:00:00 7.7 2 Nordeste 9 Este 0 1013.7 1.7 94
2019-01-21 06:00:00 7.9 5 Este 13 Nordeste 0 1012.7 1.2 91
2019-01-21 05:00:00 8.9 8 Norte 13 Nordeste 0 1012.2 1.2 87
2019-01-21 04:00:00 8.8 7 Norte 24 Nordeste 0 1012 1.5 88
2019-01-21 03:00:00 9.6 17 Norte 33 Nordeste 0 1011.5 1.5 84
2019-01-21 02:00:00 9.7 6 Norte 24 Nordeste 0 1011 1.5 80
2019-01-21 01:00:00 9.9 10 Norte 26 Nordeste 0 1010.5 1.6 79
2019-01-21 00:00:00 10.4 17 Nordeste 35 Nordeste 0 1010 1.4 72
2019-01-20 23:00:00 10.2 12 Nordeste 22 Nordeste 0 1009.5 1.7 75
2019-01-20 22:00:00 10 13 Nordeste 22 Nordeste 0 1008.9 2.4 74
2019-01-20 21:00:00 9.9 12 Nordeste 30 Nordeste 0 1008.6 2.6 82
2019-01-20 20:00:00 10.6 7 Nordeste 33 Este 0 1007.8 1.8 86
2019-01-20 19:00:00 10.9 5 Noroeste 17 Noroeste 0 1006.5 0.5 83
2019-01-20 18:00:00 11.4 13 Noroeste 22 Noroeste 0 1006 0.2 79
2019-01-20 17:00:00 12.5 13 Noroeste 30 Noroeste 0 1006 -0.2 73
2019-01-20 16:00:00 13.6 19 Noroeste 30 Oeste 0 1006 -1 70
2019-01-20 15:00:00 14.1 14 Noroeste 32 Noroeste 0 1005.8 -1.9 68
2019-01-20 14:00:00 12.9 15 Noroeste 26 Norte 0 1006.2 -1.4 72
2019-01-20 13:00:00 11.9 5 Norte 9 Norte 0.2 1007 -0.4 94
2019-01-20 12:00:00 10.9 6 Norte 11 Norte 0.2 1007.7 0.2 97
2019-01-20 11:00:00 10.4 3 Este 9 Este 0.2 1007.6 0.2 97
2019-01-20 10:00:00 9.3 5 Este 9 Este 0 1007.4 -0.2 98
2019-01-20 09:00:00 8.9 5 Este 11 Oeste 0.4 1007.5 -0.6 98
2019-01-20 08:00:00 9 4 Nordeste 11 Nordeste 1.6 1007.4 -1.3 98
2019-01-20 07:00:00 8.5 10 Nordeste 13 Este 1.6 1007.6 -2.2 98
2019-01-20 06:00:00 8.2 7 Norte 11 Nordeste 1.8 1008.1 -2.7 97
2019-01-20 05:00:00 7.8 4 Nordeste 13 Norte 0.9 1008.7 -2.7 95
2019-01-20 04:00:00 6.2 5 Nordeste 9 Este 0 1009.8 -2.4 96
2019-01-20 03:00:00 4.9 5 Norte 8 Norte 0 1010.8 -1.9 96
2019-01-20 02:00:00 4.4 4 Nordeste 8 Nordeste 0 1011.4 -1.7 97
2019-01-20 01:00:00 3.4 3 Noroeste 8 Este 0 1012.2 -1.1 97
2019-01-20 00:00:00 2.9 6 Nordeste 8 Nordeste 0 1012.7 -0.9 96
2019-01-19 23:00:00 3.2 4 Nordeste 5 Nordeste 0 1013.1 -0.6 95
2019-01-19 22:00:00 3.5 4 Nordeste 9 Nordeste 0 1013.3 -0.4 93
2019-01-19 21:00:00 4.8 2 Norte 9 Nordeste 0 1013.6 0.1 89
2019-01-19 20:00:00 6.8 6 Nordeste 9 Norte 0 1013.7 0.2 81
2019-01-19 19:00:00 8.3 2 Oeste 13 Norte 0 1013.7 0.2 76
2019-01-19 18:00:00 9.7 10 Noroeste 18 Noroeste 0 1013.5 -0.1 69
2019-01-19 17:00:00 11.9 12 Noroeste 26 Noroeste 0 1013.5 -0.6 60
2019-01-19 16:00:00 12.6 14 Noroeste 26 Noroeste 0 1013.5 -1.4 57
2019-01-19 15:00:00 12.8 14 Norte 22 Norte 0 1013.6 -2 57
2019-01-19 14:00:00 13.2 10 Noroeste 22 Noroeste 0 1014.1 -1.7 54
2019-01-19 13:00:00 13.1 13 Noroeste 21 Norte 0 1014.9 -0.5 56
2019-01-19 12:00:00 13.4 4 Sudoeste 11 Sudoeste 0 1015.6 0.6 61
2019-01-19 11:00:00 10.7 4 Este 9 Sudeste 0 1015.8 1.1 80
2019-01-19 10:00:00 6.6 0 Calma 8 Este 0 1015.4 0.8 97
2019-01-19 09:00:00 5.3 2 Nordeste 5 Este 0 1015 0.3 98
2019-01-19 08:00:00 5.1 5 Nordeste 8 Este 0 1014.7 -0.3 98
2019-01-19 07:00:00 5.1 6 Este 11 Este 0 1014.6 -0.7 99
2019-01-19 06:00:00 4 3 Norte 13 Norte 0 1014.7 -1 99
2019-01-19 05:00:00 3.7 4 Nordeste 8 Nordeste 0 1015 -0.9 99
2019-01-19 04:00:00 4.2 4 Este 11 Noroeste 0 1015.3 -1.3 99
2019-01-19 03:00:00 3.1 6 Noroeste 9 Noroeste 0 1015.7 -1.4 99
2019-01-19 02:00:00 3.4 5 Este 8 Este 0 1015.9 -1.2 98
2019-01-19 01:00:00 4.7 4 Este 8 Este 0 1016.6 -0.2 98
2019-01-19 00:00:00 5 -- -- -- -- 0 1017.1 0.3 98